createdAt,value
2024-03-28T00:00:46.683Z,86
2024-03-28T00:02:23.420Z,86
2024-03-28T00:04:00.179Z,86
2024-03-28T00:05:36.923Z,86
2024-03-28T00:07:13.661Z,86
2024-03-28T00:08:50.406Z,86.5
2024-03-28T00:10:27.159Z,86.5
2024-03-28T00:12:03.906Z,86.5
2024-03-28T00:13:40.670Z,86.5
2024-03-28T00:15:17.407Z,86.5
2024-03-28T00:16:54.145Z,86.5
2024-03-28T00:18:30.897Z,86.5
2024-03-28T00:20:07.642Z,86.5
2024-03-28T00:21:44.386Z,86.5
2024-03-28T00:23:21.149Z,86.5
2024-03-28T00:24:57.883Z,86
2024-03-28T00:26:33.897Z,86.5
2024-03-28T00:28:10.640Z,86.5
2024-03-28T00:29:47.396Z,86.5
2024-03-28T00:31:24.131Z,86.5
2024-03-28T00:33:00.882Z,86.5
2024-03-28T00:34:37.635Z,86.5
2024-03-28T00:36:14.382Z,86.5
2024-03-28T00:37:51.125Z,86
2024-03-28T00:39:27.880Z,86
2024-03-28T00:41:04.613Z,86
2024-03-28T00:42:41.370Z,86
2024-03-28T00:44:18.109Z,86
2024-03-28T00:45:54.852Z,86.5
2024-03-28T00:47:31.591Z,86.5
2024-03-28T00:49:07.619Z,86
2024-03-28T00:50:44.373Z,86
2024-03-28T00:52:21.113Z,85.5
2024-03-28T00:53:57.852Z,85.5
2024-03-28T00:55:34.611Z,86
2024-03-28T00:57:11.363Z,86
2024-03-28T00:58:48.107Z,86
2024-03-28T01:00:24.851Z,86
2024-03-28T01:02:01.600Z,86
2024-03-28T01:03:38.334Z,86
2024-03-28T01:05:15.088Z,86.5
2024-03-28T01:06:51.839Z,86.5
2024-03-28T01:08:28.594Z,86.5
2024-03-28T01:10:05.341Z,86.5
2024-03-28T01:11:42.143Z,86
2024-03-28T01:13:18.992Z,86.5
2024-03-28T01:14:55.679Z,86.5
2024-03-28T01:16:32.472Z,86.5
2024-03-28T01:18:09.083Z,86
2024-03-28T01:19:45.071Z,86
2024-03-28T01:21:21.822Z,86
2024-03-28T01:22:58.584Z,86
2024-03-28T01:24:35.320Z,86
2024-03-28T01:26:12.065Z,86
2024-03-28T01:27:48.816Z,85.5
2024-03-28T01:29:25.562Z,86
2024-03-28T01:31:02.311Z,86
2024-03-28T01:32:39.068Z,86
2024-03-28T01:34:15.808Z,86
2024-03-28T01:35:52.549Z,86
2024-03-28T01:37:29.412Z,85.5
2024-03-28T01:39:06.047Z,86
2024-03-28T01:40:42.796Z,86
2024-03-28T01:42:19.539Z,86
2024-03-28T01:43:56.284Z,86
2024-03-28T01:45:33.021Z,86
2024-03-28T01:47:09.773Z,86
2024-03-28T01:48:46.515Z,86
2024-03-28T01:50:23.271Z,85.5
2024-03-28T01:52:00.027Z,86
2024-03-28T01:53:36.767Z,85.5
2024-03-28T01:55:13.509Z,85.5
2024-03-28T01:56:50.267Z,86
2024-03-28T01:58:27.010Z,86
2024-03-28T02:00:03.762Z,86
2024-03-28T02:01:40.496Z,86
2024-03-28T02:03:17.249Z,86
2024-03-28T02:04:53.991Z,86
2024-03-28T02:06:30.746Z,86
2024-03-28T02:08:07.492Z,86
2024-03-28T02:09:44.232Z,85.5
2024-03-28T02:11:20.249Z,86
2024-03-28T02:12:57.010Z,85.5
2024-03-28T02:14:33.749Z,85
2024-03-28T02:16:10.477Z,85.5
2024-03-28T02:17:47.247Z,85.5
2024-03-28T02:19:23.986Z,85
2024-03-28T02:21:00.728Z,85
2024-03-28T02:22:37.486Z,84.5
2024-03-28T02:24:14.215Z,84.5
2024-03-28T02:25:51.004Z,84.5
2024-03-28T02:27:27.718Z,85
2024-03-28T02:29:04.468Z,85
2024-03-28T02:30:41.219Z,84.5
2024-03-28T02:32:17.959Z,85
2024-03-28T02:33:54.717Z,85
2024-03-28T02:35:31.452Z,85.5
2024-03-28T02:37:08.204Z,85
2024-03-28T02:38:44.945Z,85
2024-03-28T02:40:20.961Z,85
2024-03-28T02:41:57.710Z,85.5
2024-03-28T02:43:34.456Z,85.5
2024-03-28T02:45:11.199Z,85
2024-03-28T02:46:47.988Z,85
2024-03-28T02:48:24.706Z,85
2024-03-28T02:50:01.449Z,85.5
2024-03-28T02:51:38.197Z,85.5
2024-03-28T02:53:14.924Z,85.5
2024-03-28T02:54:51.693Z,85.5
2024-03-28T02:56:28.431Z,85.5
2024-03-28T02:58:04.456Z,85.5
2024-03-28T02:59:41.200Z,85.5
2024-03-28T03:01:17.937Z,85
2024-03-28T03:02:54.693Z,85
2024-03-28T03:04:31.443Z,85.5
2024-03-28T03:06:08.179Z,85.5
2024-03-28T03:07:44.983Z,85
2024-03-28T03:09:21.683Z,84.5
2024-03-28T03:10:58.414Z,85
2024-03-28T03:12:35.163Z,85
2024-03-28T03:14:11.919Z,84.5
2024-03-28T03:15:48.666Z,84.5
2024-03-28T03:17:25.420Z,84
2024-03-28T03:19:02.157Z,84.5
2024-03-28T03:20:38.910Z,84.5
2024-03-28T03:22:15.654Z,84.5
2024-03-28T03:23:52.408Z,84.5
2024-03-28T03:25:29.144Z,85
2024-03-28T03:27:05.904Z,85
2024-03-28T03:28:42.640Z,84.5
2024-03-28T03:30:19.389Z,84.5
2024-03-28T03:31:56.128Z,84
2024-03-28T03:33:32.882Z,84.5
2024-03-28T03:35:09.638Z,84.5
2024-03-28T03:36:46.380Z,84.5
2024-03-28T03:38:23.128Z,84.5
2024-03-28T03:39:59.867Z,84.5
2024-03-28T03:41:36.617Z,85
2024-03-28T03:43:13.378Z,85
2024-03-28T03:44:50.112Z,85
2024-03-28T03:46:26.854Z,85
2024-03-28T03:48:03.603Z,85.5
2024-03-28T03:49:39.615Z,85.5
2024-03-28T03:51:16.388Z,85.5
2024-03-28T03:52:53.098Z,85
2024-03-28T03:54:29.860Z,85
2024-03-28T03:56:06.617Z,85
2024-03-28T03:57:43.354Z,85
2024-03-28T03:59:20.103Z,85
2024-03-28T04:00:56.844Z,85
2024-03-28T04:02:33.603Z,85
2024-03-28T04:04:10.345Z,85
2024-03-28T04:05:47.096Z,85
2024-03-28T04:07:23.836Z,85
2024-03-28T04:09:00.594Z,85
2024-03-28T04:10:37.327Z,85.5
2024-03-28T04:12:14.079Z,85
2024-03-28T04:13:50.828Z,85
2024-03-28T04:15:27.575Z,85
2024-03-28T04:17:04.310Z,85.5
2024-03-28T04:18:41.053Z,85
2024-03-28T04:20:17.821Z,85
2024-03-28T04:21:54.574Z,85
2024-03-28T04:23:31.303Z,85.5
2024-03-28T04:25:07.333Z,84.5
2024-03-28T04:26:44.070Z,84.5
2024-03-28T04:28:20.808Z,84.5
2024-03-28T04:29:57.576Z,84.5
2024-03-28T04:31:34.326Z,84.5
2024-03-28T04:33:11.060Z,85
2024-03-28T04:34:47.807Z,85.5
2024-03-28T04:36:24.546Z,85.5
2024-03-28T04:38:01.295Z,85.5
2024-03-28T04:39:38.048Z,85
2024-03-28T04:41:14.791Z,85
2024-03-28T04:42:51.545Z,85
2024-03-28T04:44:28.285Z,85
2024-03-28T04:46:05.038Z,85
2024-03-28T04:47:41.792Z,85
2024-03-28T04:49:18.538Z,85
2024-03-28T04:50:55.287Z,85
2024-03-28T04:52:32.014Z,85
2024-03-28T04:54:08.776Z,85
2024-03-28T04:55:45.521Z,85
2024-03-28T04:57:22.263Z,85.5
2024-03-28T04:58:59.028Z,85.5
2024-03-28T05:00:35.775Z,85.5
2024-03-28T05:02:12.509Z,85
2024-03-28T05:03:49.262Z,84.5
2024-03-28T05:05:25.994Z,85
2024-03-28T05:07:02.750Z,85
2024-03-28T05:08:39.495Z,85
2024-03-28T05:10:16.249Z,85
2024-03-28T05:11:52.990Z,85
2024-03-28T05:13:29.733Z,85
2024-03-28T05:15:06.468Z,85
2024-03-28T05:16:43.236Z,85
2024-03-28T05:18:19.969Z,85
2024-03-28T05:19:56.722Z,85
2024-03-28T05:21:33.474Z,85
2024-03-28T05:23:10.217Z,85.5
2024-03-28T05:25:22.378Z,85
2024-03-28T05:27:01.084Z,85.5
2024-03-28T05:28:38.328Z,85.5
2024-03-28T05:30:15.555Z,85.5
2024-03-28T05:31:54.259Z,85.5
2024-03-28T05:33:32.987Z,85.5
2024-03-28T05:35:11.656Z,85.5
2024-03-28T05:36:50.367Z,85.5
2024-03-28T05:38:29.056Z,85.5
2024-03-28T05:40:07.739Z,85
2024-03-28T05:41:46.455Z,85
2024-03-28T05:43:25.149Z,85
2024-03-28T05:45:03.845Z,84.5
2024-03-28T05:46:41.398Z,84.5
2024-03-28T05:48:17.897Z,84.5
2024-03-28T05:49:56.590Z,84.5
2024-03-28T05:51:35.287Z,84.5
2024-03-28T05:53:13.984Z,84.5
2024-03-28T05:54:52.678Z,83.5
2024-03-28T05:56:31.388Z,82.5
2024-03-28T05:58:10.085Z,82
2024-03-28T05:59:48.289Z,82
2024-03-28T06:01:25.025Z,81.5
2024-03-28T06:03:01.769Z,81
2024-03-28T06:04:37.790Z,81
2024-03-28T06:06:14.542Z,80.5
2024-03-28T06:07:51.286Z,80
2024-03-28T06:09:28.044Z,79
2024-03-28T06:11:04.785Z,79
2024-03-28T06:12:41.527Z,78.5
2024-03-28T06:14:18.276Z,78
2024-03-28T06:15:55.005Z,78
2024-03-28T06:17:31.795Z,78.5
2024-03-28T06:19:08.519Z,78.5
2024-03-28T06:20:45.255Z,78.5
2024-03-28T06:22:22.050Z,77.5
2024-03-28T06:23:58.761Z,77.5
2024-03-28T06:25:35.503Z,77.5
2024-03-28T06:27:12.251Z,77
2024-03-28T06:28:48.999Z,77
2024-03-28T06:30:25.748Z,77.5
2024-03-28T06:32:02.496Z,77
2024-03-28T06:33:39.230Z,77
2024-03-28T06:35:15.988Z,77
2024-03-28T06:36:52.735Z,76.5
2024-03-28T06:38:29.485Z,76.5
2024-03-28T06:40:06.227Z,76.5
2024-03-28T06:41:42.981Z,75.5
2024-03-28T06:43:19.725Z,75.5
2024-03-28T06:44:56.468Z,75.5
2024-03-28T06:46:33.309Z,75
2024-03-28T06:48:09.960Z,75
2024-03-28T06:49:46.712Z,74
2024-03-28T06:51:23.452Z,74
2024-03-28T06:53:00.205Z,74
2024-03-28T06:54:37.076Z,74
2024-03-28T06:56:13.691Z,73.5
2024-03-28T06:57:50.434Z,73
2024-03-28T06:59:27.199Z,73.5
2024-03-28T07:01:04.049Z,73
2024-03-28T07:02:40.710Z,73
2024-03-28T07:04:17.937Z,73
2024-03-28T07:05:56.644Z,73
2024-03-28T07:07:35.340Z,72.5
2024-03-28T07:09:14.038Z,71.5
2024-03-28T07:10:52.733Z,72
2024-03-28T07:12:30.010Z,72.5
2024-03-28T07:14:06.785Z,71.5
2024-03-28T07:15:45.567Z,71.5
2024-03-28T07:17:24.178Z,72
2024-03-28T07:19:02.869Z,71.5
2024-03-28T07:20:41.571Z,71
2024-03-28T07:22:20.274Z,70.5
2024-03-28T07:23:58.971Z,70
2024-03-28T07:25:37.676Z,71
2024-03-28T07:27:16.390Z,72
2024-03-28T07:28:55.066Z,71
2024-03-28T07:30:32.312Z,70.5
2024-03-28T07:32:09.544Z,71
2024-03-28T07:33:48.248Z,71.5
2024-03-28T07:35:26.951Z,72
2024-03-28T07:37:05.654Z,72.5
2024-03-28T07:38:44.344Z,73
2024-03-28T07:40:23.121Z,73.5
2024-03-28T07:42:01.737Z,73.5
2024-03-28T07:43:39.940Z,73
2024-03-28T07:45:16.678Z,72.5
2024-03-28T07:46:53.434Z,73
2024-03-28T07:48:30.178Z,72.5
2024-03-28T07:50:06.924Z,72.5
2024-03-28T07:51:43.679Z,73
2024-03-28T07:53:20.414Z,72.5
2024-03-28T07:54:57.158Z,72
2024-03-28T07:56:33.910Z,72
2024-03-28T07:58:10.710Z,72
2024-03-28T07:59:47.412Z,72
2024-03-28T08:01:24.210Z,72.5
2024-03-28T08:03:01.124Z,73
2024-03-28T08:04:37.177Z,73
2024-03-28T08:06:13.660Z,73
2024-03-28T08:07:50.622Z,72.5
2024-03-28T08:09:27.315Z,72.5
2024-03-28T08:11:04.279Z,73
2024-03-28T08:12:40.927Z,73.5
2024-03-28T08:14:17.505Z,73.5
2024-03-28T08:15:54.226Z,73.5
2024-03-28T08:17:31.214Z,73.5
2024-03-28T08:19:07.686Z,74
2024-03-28T08:20:44.386Z,73.5
2024-03-28T08:22:21.268Z,74.5
2024-03-28T08:23:57.949Z,75
2024-03-28T08:25:34.772Z,75
2024-03-28T08:27:11.364Z,75.5
2024-03-28T08:28:48.147Z,76
2024-03-28T08:30:24.854Z,75.5
2024-03-28T08:32:01.615Z,76
2024-03-28T08:33:38.460Z,76.5
2024-03-28T08:35:15.122Z,77
2024-03-28T08:36:51.854Z,77.5
2024-03-28T08:38:28.603Z,77.5
2024-03-28T08:40:05.521Z,77.5
2024-03-28T08:41:41.485Z,78.5
2024-03-28T08:43:18.302Z,79
2024-03-28T08:44:54.941Z,79
2024-03-28T08:46:31.606Z,80
2024-03-28T08:48:08.447Z,81
2024-03-28T08:49:45.111Z,82
2024-03-28T08:51:21.892Z,82.5
2024-03-28T08:52:58.631Z,83
2024-03-28T08:54:35.476Z,83
2024-03-28T08:56:12.189Z,84
2024-03-28T08:57:49.016Z,85
2024-03-28T08:59:25.623Z,85.5
2024-03-28T09:01:02.466Z,85.5
2024-03-28T09:02:39.092Z,85
2024-03-28T09:04:15.823Z,86
2024-03-28T09:05:52.576Z,86.5
2024-03-28T09:07:29.326Z,87
2024-03-28T09:09:06.100Z,87.5
2024-03-28T09:10:42.802Z,88
2024-03-28T09:12:19.549Z,88.5
2024-03-28T09:13:56.290Z,89
2024-03-28T09:15:33.049Z,89.5
2024-03-28T09:17:09.063Z,90.5
2024-03-28T09:18:45.808Z,91
2024-03-28T09:20:22.553Z,91.5
2024-03-28T09:21:59.303Z,91.5
2024-03-28T09:23:36.041Z,92.5
2024-03-28T09:25:12.841Z,92.5
2024-03-28T09:26:49.542Z,93
2024-03-28T09:28:26.292Z,93.5
2024-03-28T09:30:03.032Z,93
2024-03-28T09:31:39.775Z,93
2024-03-28T09:33:16.535Z,93.5
2024-03-28T09:34:53.269Z,93.5
2024-03-28T09:36:30.014Z,94
2024-03-28T09:38:06.772Z,94.5
2024-03-28T09:39:43.526Z,94.5
2024-03-28T09:41:20.271Z,94
2024-03-28T09:42:57.010Z,94
2024-03-28T09:44:33.751Z,94.5
2024-03-28T09:46:10.507Z,95
2024-03-28T09:47:47.258Z,95.5
2024-03-28T09:49:24.005Z,95.5
2024-03-28T09:51:00.749Z,95
2024-03-28T09:52:37.499Z,95.5
2024-03-28T09:54:14.241Z,96
2024-03-28T09:55:50.980Z,96
2024-03-28T09:57:27.730Z,96.5
2024-03-28T09:59:03.758Z,96.5
2024-03-28T10:00:40.501Z,96.5
2024-03-28T10:02:17.243Z,96
2024-03-28T10:03:53.974Z,95.5
2024-03-28T10:05:30.733Z,95.5
2024-03-28T10:07:07.481Z,95
2024-03-28T10:08:44.286Z,95
2024-03-28T10:10:20.999Z,95
2024-03-28T10:11:57.728Z,95
2024-03-28T10:13:34.608Z,95.5
2024-03-28T10:16:47.972Z,95
2024-03-28T10:18:24.718Z,95
2024-03-28T10:20:01.458Z,95
2024-03-28T10:21:38.209Z,95
2024-03-28T10:23:14.946Z,94.5
2024-03-28T10:24:50.965Z,94.5
2024-03-28T10:26:27.731Z,94.5
2024-03-28T10:28:04.468Z,93.5
2024-03-28T10:29:41.218Z,93
2024-03-28T10:31:17.973Z,92.5
2024-03-28T10:32:54.716Z,93
2024-03-28T10:34:31.457Z,93.5
2024-03-28T10:36:08.249Z,93
2024-03-28T10:37:45.259Z,93
2024-03-28T10:39:21.902Z,92
2024-03-28T10:40:58.437Z,93
2024-03-28T10:42:35.188Z,92.5
2024-03-28T10:44:12.022Z,92.5
2024-03-28T10:45:48.925Z,93.5
2024-03-28T10:47:25.842Z,93.5
2024-03-28T10:49:02.172Z,94
2024-03-28T10:50:39.274Z,93.5
2024-03-28T10:52:16.073Z,94.5
2024-03-28T10:53:52.746Z,94.5
2024-03-28T10:55:29.450Z,94.5
2024-03-28T10:57:06.129Z,94.5
2024-03-28T10:58:42.941Z,93
2024-03-28T11:00:19.775Z,93
2024-03-28T11:01:56.460Z,92.5
2024-03-28T11:03:32.884Z,92.5
2024-03-28T11:05:09.928Z,91.5
2024-03-28T11:06:46.436Z,91
2024-03-28T11:08:23.200Z,92
2024-03-28T11:09:59.975Z,91.5
2024-03-28T11:11:36.729Z,91
2024-03-28T11:13:13.381Z,91.5
2024-03-28T11:14:50.136Z,92
2024-03-28T11:16:26.899Z,93
2024-03-28T11:18:03.634Z,92.5
2024-03-28T11:19:40.365Z,93
2024-03-28T11:21:17.103Z,93.5
2024-03-28T11:22:53.851Z,93.5
2024-03-28T11:25:06.011Z,93.5
2024-03-28T11:26:44.724Z,94
2024-03-28T11:28:23.423Z,94
2024-03-28T11:30:00.680Z,94
2024-03-28T11:31:37.904Z,94
2024-03-28T11:33:16.689Z,94
2024-03-28T11:35:03.489Z,93.5
2024-03-28T11:36:42.190Z,93.5
2024-03-28T11:38:20.885Z,93.5
2024-03-28T11:39:59.586Z,93.5
2024-03-28T11:41:38.291Z,93
2024-03-28T11:43:16.977Z,93
2024-03-28T11:44:55.688Z,93
2024-03-28T11:46:32.912Z,92.5
2024-03-28T11:48:09.720Z,92.5
2024-03-28T11:49:48.421Z,92
2024-03-28T11:51:27.119Z,91.5
2024-03-28T11:53:05.823Z,90.5
2024-03-28T11:54:44.512Z,90
2024-03-28T11:56:23.208Z,90
2024-03-28T11:58:01.934Z,89.5
2024-03-28T11:59:40.619Z,89
2024-03-28T12:01:19.304Z,88
2024-03-28T12:02:57.995Z,87
2024-03-28T12:04:35.319Z,87
2024-03-28T12:06:11.625Z,87
2024-03-28T12:07:48.392Z,87
2024-03-28T12:09:25.132Z,86.5
2024-03-28T12:11:01.884Z,86
2024-03-28T12:12:38.625Z,85.5
2024-03-28T12:14:15.366Z,84
2024-03-28T12:15:52.121Z,83
2024-03-28T12:17:28.859Z,81
2024-03-28T12:19:05.610Z,81
2024-03-28T12:20:41.624Z,80
2024-03-28T12:22:18.386Z,80
2024-03-28T12:25:31.859Z,78.5
2024-03-28T12:27:08.609Z,79
2024-03-28T12:28:45.369Z,79
2024-03-28T12:30:22.112Z,77.5
2024-03-28T12:31:58.857Z,76.5
2024-03-28T12:35:12.352Z,75
2024-03-28T12:36:49.115Z,74
2024-03-28T12:38:25.845Z,73
2024-03-28T12:40:02.588Z,71
2024-03-28T12:41:38.607Z,69.5
2024-03-28T12:43:15.400Z,70.5
2024-03-28T12:44:52.104Z,69.5
2024-03-28T12:46:28.854Z,69
2024-03-28T12:48:05.585Z,69.5
2024-03-28T12:49:42.354Z,68.5
2024-03-28T12:52:55.839Z,68
2024-03-28T12:54:32.582Z,68
2024-03-28T12:56:09.324Z,68
2024-03-28T12:57:46.084Z,67
2024-03-28T12:59:22.820Z,67
2024-03-28T13:00:59.657Z,67.5
2024-03-28T13:02:36.320Z,67.5
2024-03-28T13:04:13.067Z,67.5
2024-03-28T13:05:49.809Z,66
2024-03-28T13:07:26.550Z,65
2024-03-28T13:09:03.311Z,63.5
2024-03-28T13:10:40.060Z,63.5
2024-03-28T13:12:16.802Z,61.5
2024-03-28T13:13:53.539Z,62.5
2024-03-28T13:15:30.285Z,62.5
2024-03-28T13:17:07.033Z,62
2024-03-28T13:18:43.781Z,62.5
2024-03-28T13:20:20.518Z,62.5
2024-03-28T13:21:57.279Z,62
2024-03-28T13:23:34.028Z,62
2024-03-28T13:25:10.763Z,61.5
2024-03-28T13:26:47.520Z,61.5
2024-03-28T13:28:24.248Z,61
2024-03-28T13:30:01.007Z,62
2024-03-28T13:31:37.828Z,62
2024-03-28T13:33:14.508Z,61.5
2024-03-28T13:34:51.228Z,62
2024-03-28T13:36:27.973Z,62
2024-03-28T13:38:04.739Z,62
2024-03-28T13:39:41.479Z,62
2024-03-28T13:41:18.753Z,62
2024-03-28T13:42:57.439Z,65.5
2024-03-28T13:44:36.130Z,72.5
2024-03-28T13:46:14.821Z,80
2024-03-28T13:47:53.524Z,83
2024-03-28T13:49:30.766Z,84.5
2024-03-28T13:51:07.571Z,85
2024-03-28T13:52:46.262Z,85.5
2024-03-28T13:54:24.973Z,86
2024-03-28T13:56:03.653Z,85
2024-03-28T13:57:42.355Z,85
2024-03-28T13:59:21.056Z,84.5
2024-03-28T14:00:59.757Z,84
2024-03-28T14:02:38.459Z,84
2024-03-28T14:04:17.152Z,83
2024-03-28T14:05:55.857Z,82.5
2024-03-28T14:07:33.095Z,80.5
2024-03-28T14:09:10.334Z,78.5
2024-03-28T14:10:49.018Z,77.5
2024-03-28T14:12:27.728Z,75.5
2024-03-28T14:14:06.438Z,75.5
2024-03-28T14:15:45.224Z,75
2024-03-28T14:17:32.023Z,73.5
2024-03-28T14:19:10.724Z,72.5
2024-03-28T14:20:49.398Z,70
2024-03-28T14:22:28.110Z,69.5
2024-03-28T14:24:05.592Z,69.5
2024-03-28T14:25:42.593Z,70
2024-03-28T14:27:21.297Z,70
2024-03-28T14:28:59.995Z,70
2024-03-28T14:30:38.962Z,67.5
2024-03-28T14:32:17.386Z,66.5
2024-03-28T14:33:56.086Z,67
2024-03-28T14:35:34.777Z,67
2024-03-28T14:37:13.484Z,66.5
2024-03-28T14:38:52.179Z,66
2024-03-28T14:40:30.880Z,67
2024-03-28T14:42:07.274Z,67.5
2024-03-28T14:43:44.008Z,67
2024-03-28T14:45:20.756Z,67
2024-03-28T14:46:57.503Z,67
2024-03-28T14:48:33.529Z,66
2024-03-28T14:50:10.284Z,63.5
2024-03-28T14:51:47.022Z,64.5
2024-03-28T14:53:23.757Z,62.5
2024-03-28T14:55:00.501Z,62.5
2024-03-28T14:56:37.269Z,63.5
2024-03-28T14:58:14.004Z,64.5
2024-03-28T14:59:50.749Z,64.5
2024-03-28T15:01:27.505Z,63.5
2024-03-28T15:03:04.238Z,63.5
2024-03-28T15:04:41.006Z,64
2024-03-28T15:06:17.743Z,64
2024-03-28T15:07:54.481Z,64.5
2024-03-28T15:09:31.221Z,64
2024-03-28T15:11:07.985Z,63.5
2024-03-28T15:12:44.718Z,63
2024-03-28T15:14:21.486Z,63
2024-03-28T15:15:58.214Z,62
2024-03-28T15:17:34.958Z,62.5
2024-03-28T15:19:11.710Z,62.5
2024-03-28T15:20:47.767Z,62
2024-03-28T15:22:24.518Z,63
2024-03-28T15:24:01.280Z,62
2024-03-28T15:25:38.017Z,61.5
2024-03-28T15:27:14.802Z,61.5
2024-03-28T15:28:51.510Z,62
2024-03-28T15:30:28.259Z,62
2024-03-28T15:32:04.987Z,62
2024-03-28T15:33:41.746Z,61.5
2024-03-28T15:35:17.762Z,62
2024-03-28T15:36:54.506Z,62.5
2024-03-28T15:38:31.254Z,62
2024-03-28T15:40:08.013Z,61
2024-03-28T15:41:44.739Z,61.5
2024-03-28T15:43:21.494Z,61
2024-03-28T15:44:58.248Z,61
2024-03-28T15:46:34.989Z,61.5
2024-03-28T15:48:11.731Z,61.5
2024-03-28T15:49:48.502Z,61.5
2024-03-28T15:51:25.222Z,61
2024-03-28T15:53:01.965Z,61
2024-03-28T15:54:38.720Z,61
2024-03-28T15:56:15.477Z,60.5
2024-03-28T15:57:51.478Z,60.5
2024-03-28T15:59:28.222Z,60.5
2024-03-28T16:01:04.968Z,61
2024-03-28T16:02:41.715Z,60.5
2024-03-28T16:05:55.217Z,58.5
2024-03-28T16:07:31.968Z,59
2024-03-28T16:09:08.715Z,58.5
2024-03-28T16:10:45.458Z,58.5
2024-03-28T16:12:21.297Z,58.5
2024-03-28T16:13:57.807Z,58.5
2024-03-28T16:15:34.330Z,59
2024-03-28T16:17:10.849Z,59
2024-03-28T16:18:47.379Z,59
2024-03-28T16:20:23.891Z,59
2024-03-28T16:23:36.938Z,59.5
2024-03-28T16:28:26.475Z,61.5
2024-03-28T16:30:03.020Z,62
2024-03-28T16:31:39.546Z,62
2024-03-28T16:33:16.044Z,63
2024-03-28T16:34:52.583Z,64
2024-03-28T16:36:29.092Z,64
2024-03-28T16:38:05.615Z,65
2024-03-28T16:39:42.131Z,66
2024-03-28T16:41:18.654Z,67
2024-03-28T16:44:31.695Z,68.5
2024-03-28T16:46:08.234Z,68.5
2024-03-28T16:47:44.732Z,68
2024-03-28T16:49:21.250Z,69
2024-03-28T16:50:57.787Z,69.5
2024-03-28T16:52:34.529Z,69
2024-03-28T16:54:11.285Z,68.5
2024-03-28T16:55:48.023Z,69
2024-03-28T16:57:24.780Z,68.5
2024-03-28T16:59:00.794Z,68.5
2024-03-28T17:00:37.532Z,69
2024-03-28T17:02:14.288Z,69
2024-03-28T17:03:51.031Z,68.5
2024-03-28T17:05:27.777Z,68
2024-03-28T17:07:04.540Z,68
2024-03-28T17:08:41.277Z,68.5
2024-03-28T17:10:18.022Z,68.5
2024-03-28T17:11:54.768Z,68
2024-03-28T17:13:31.516Z,68.5
2024-03-28T17:15:08.254Z,68.5
2024-03-28T17:16:45.009Z,68.5
2024-03-28T17:18:21.764Z,69
2024-03-28T17:19:58.508Z,69
2024-03-28T17:21:35.254Z,69
2024-03-28T17:23:11.259Z,69
2024-03-28T17:24:48.018Z,69.5
2024-03-28T17:26:24.759Z,69.5
2024-03-28T17:28:01.508Z,69.5
2024-03-28T17:29:38.260Z,69.5
2024-03-28T17:31:14.992Z,69.5
2024-03-28T17:32:51.729Z,69.5
2024-03-28T17:34:28.478Z,69.5
2024-03-28T17:36:05.249Z,69.5
2024-03-28T17:37:41.990Z,69
2024-03-28T17:39:18.742Z,69
2024-03-28T17:40:55.487Z,69.5
2024-03-28T17:42:32.216Z,69.5
2024-03-28T17:44:08.974Z,70
2024-03-28T17:45:44.989Z,69.5
2024-03-28T17:47:21.739Z,69.5
2024-03-28T17:48:58.485Z,69.5
2024-03-28T17:50:35.278Z,69.5
2024-03-28T17:52:11.991Z,69.5
2024-03-28T17:53:48.714Z,70
2024-03-28T17:55:25.471Z,70
2024-03-28T17:57:02.219Z,70
2024-03-28T17:58:38.965Z,70.5
2024-03-28T18:00:15.725Z,70.5
2024-03-28T18:01:52.467Z,70.5
2024-03-28T18:03:29.195Z,70.5
2024-03-28T18:05:05.943Z,70.5
2024-03-28T18:06:42.703Z,70.5
2024-03-28T18:08:19.445Z,70.5
2024-03-28T18:09:56.181Z,70.5
2024-03-28T18:11:32.944Z,71
2024-03-28T18:13:09.686Z,71
2024-03-28T18:14:46.436Z,71.5
2024-03-28T18:16:23.180Z,71.5
2024-03-28T18:17:59.920Z,71.5
2024-03-28T18:19:36.681Z,71.5
2024-03-28T18:21:13.423Z,71.5
2024-03-28T18:22:50.164Z,72.5
2024-03-28T18:24:26.923Z,72.5
2024-03-28T18:26:02.930Z,72.5
2024-03-28T18:27:39.693Z,72.5
2024-03-28T18:29:16.424Z,72.5
2024-03-28T18:30:53.188Z,73
2024-03-28T18:32:29.905Z,73
2024-03-28T18:34:06.672Z,73
2024-03-28T18:35:43.416Z,73
2024-03-28T18:37:20.156Z,73
2024-03-28T18:38:56.897Z,73
2024-03-28T18:40:33.651Z,73
2024-03-28T18:42:10.399Z,73.5
2024-03-28T18:43:47.136Z,73.5
2024-03-28T18:45:23.889Z,74
2024-03-28T18:47:00.635Z,74
2024-03-28T18:48:37.387Z,73.5
2024-03-28T18:50:14.123Z,73.5
2024-03-28T18:51:50.874Z,73.5
2024-03-28T18:53:27.638Z,73.5
2024-03-28T18:55:04.376Z,73.5
2024-03-28T18:58:17.868Z,73.5
2024-03-28T18:59:54.610Z,73.5
2024-03-28T19:01:31.355Z,73.5
2024-03-28T19:03:08.111Z,73
2024-03-28T19:04:44.853Z,73.5
2024-03-28T19:06:21.594Z,73.5
2024-03-28T19:07:57.618Z,73.5
2024-03-28T19:09:34.343Z,74
2024-03-28T19:11:11.109Z,74
2024-03-28T19:12:47.862Z,73.5
2024-03-28T19:14:24.588Z,74
2024-03-28T19:16:01.343Z,73.5
2024-03-28T19:17:38.098Z,73.5
2024-03-28T19:19:14.841Z,73.5
2024-03-28T19:20:51.585Z,73.5
2024-03-28T19:22:28.341Z,73
2024-03-28T19:24:05.092Z,73
2024-03-28T19:25:41.822Z,73.5
2024-03-28T19:27:18.570Z,73.5
2024-03-28T19:28:55.312Z,73.5
2024-03-28T19:30:32.065Z,73
2024-03-28T19:32:08.826Z,73
2024-03-28T19:33:45.567Z,73
2024-03-28T19:35:22.309Z,73
2024-03-28T19:36:59.055Z,73
2024-03-28T19:38:35.804Z,72.5
2024-03-28T19:40:12.559Z,72.5
2024-03-28T19:41:49.293Z,72.5
2024-03-28T19:43:26.040Z,71.5
2024-03-28T19:45:02.832Z,71.5
2024-03-28T19:46:39.586Z,70.5
2024-03-28T19:48:16.284Z,70.5
2024-03-28T19:49:53.022Z,70.5
2024-03-28T19:51:29.783Z,70
2024-03-28T19:53:06.522Z,69
2024-03-28T19:54:43.273Z,69
2024-03-28T19:56:20.011Z,69
2024-03-28T19:57:56.776Z,68.5
2024-03-28T19:59:32.779Z,68
2024-03-28T20:01:09.526Z,67.5
2024-03-28T20:02:46.282Z,67
2024-03-28T20:04:23.040Z,67
2024-03-28T20:05:59.761Z,66.5
2024-03-28T20:07:36.523Z,67
2024-03-28T20:09:13.267Z,66.5
2024-03-28T20:10:50.010Z,66
2024-03-28T20:12:26.755Z,66
2024-03-28T20:14:03.508Z,65.5
2024-03-28T20:15:40.252Z,65.5
2024-03-28T20:17:17.002Z,65.5
2024-03-28T20:18:53.745Z,65.5
2024-03-28T20:20:30.493Z,65.5
2024-03-28T20:23:43.994Z,65.5
2024-03-28T20:25:20.736Z,65.5
2024-03-28T20:26:56.729Z,65.5
2024-03-28T20:28:33.491Z,65
2024-03-28T20:30:10.235Z,65
2024-03-28T20:31:46.988Z,64.5
2024-03-28T20:33:23.740Z,64.5
2024-03-28T20:35:00.471Z,64.5
2024-03-28T20:36:37.237Z,63.5
2024-03-28T20:38:13.983Z,64
2024-03-28T20:39:50.711Z,64
2024-03-28T20:41:27.472Z,63.5
2024-03-28T20:43:04.216Z,64.5
2024-03-28T20:44:40.948Z,64.5
2024-03-28T20:46:17.705Z,64.5
2024-03-28T20:47:54.442Z,64.5
2024-03-28T20:49:31.200Z,64.5
2024-03-28T20:51:07.941Z,64.5
2024-03-28T20:52:44.693Z,65.5
2024-03-28T20:54:21.440Z,64.5
2024-03-28T20:57:34.935Z,65.5
2024-03-28T20:59:10.964Z,65
2024-03-28T21:00:47.743Z,65
2024-03-28T21:02:24.431Z,65
2024-03-28T21:04:01.239Z,65
2024-03-28T21:05:37.946Z,65.5
2024-03-28T21:07:14.691Z,65.5
2024-03-28T21:08:51.440Z,65.5
2024-03-28T21:10:28.193Z,65
2024-03-28T21:12:04.920Z,65.5
2024-03-28T21:13:41.676Z,65.5
2024-03-28T21:15:18.452Z,65.5
2024-03-28T21:16:55.185Z,65.5
2024-03-28T21:18:31.909Z,66
2024-03-28T21:20:08.679Z,66
2024-03-28T21:21:45.407Z,65.5
2024-03-28T21:23:22.159Z,66
2024-03-28T21:24:58.909Z,66
2024-03-28T21:26:35.658Z,66
2024-03-28T21:28:12.392Z,65.5
2024-03-28T21:29:49.207Z,65.5
2024-03-28T21:31:25.897Z,66
2024-03-28T21:33:01.901Z,66
2024-03-28T21:34:38.650Z,66.5
2024-03-28T21:36:15.408Z,66.5
2024-03-28T21:37:52.148Z,66.5
2024-03-28T21:39:28.904Z,66.5
2024-03-28T21:41:05.644Z,66.5
2024-03-28T21:42:42.388Z,66.5
2024-03-28T21:44:19.139Z,66.5
2024-03-28T21:45:55.884Z,67
2024-03-28T21:47:32.643Z,67
2024-03-28T21:49:08.686Z,67
2024-03-28T21:50:45.450Z,67.5
2024-03-28T21:52:22.183Z,67
2024-03-28T21:53:58.928Z,67
2024-03-28T21:55:35.688Z,67.5
2024-03-28T21:57:12.433Z,67.5
2024-03-28T21:58:49.168Z,67.5
2024-03-28T22:00:25.952Z,67.5
2024-03-28T22:02:02.674Z,67.5
2024-03-28T22:03:39.516Z,67.5
2024-03-28T22:05:16.155Z,67.5
2024-03-28T22:06:52.902Z,67.5
2024-03-28T22:08:29.649Z,67.5
2024-03-28T22:10:06.431Z,67.5
2024-03-28T22:11:43.149Z,67.5
2024-03-28T22:13:19.886Z,67.5
2024-03-28T22:16:33.385Z,67.5
2024-03-28T22:18:10.129Z,67.5
2024-03-28T22:19:46.872Z,67.5
2024-03-28T22:21:23.645Z,68
2024-03-28T22:22:59.687Z,67.5
2024-03-28T22:24:36.429Z,67.5
2024-03-28T22:26:13.179Z,67.5
2024-03-28T22:27:49.940Z,67.5
2024-03-28T22:29:26.683Z,67
2024-03-28T22:31:03.418Z,67
2024-03-28T22:32:40.176Z,67
2024-03-28T22:34:16.904Z,67.5
2024-03-28T22:35:53.655Z,67.5